sensor_id;sensor_type;location;lat;lon;timestamp;temperature;humidity
2409;DHT22;8463;48.094;7.970;2023-04-06T00:01:48;2.90;6.80
2409;DHT22;8463;48.094;7.970;2023-04-06T00:04:14;2.70;7.10
2409;DHT22;8463;48.094;7.970;2023-04-06T00:06:40;2.70;7.50
2409;DHT22;8463;48.094;7.970;2023-04-06T00:09:05;2.70;8.30
2409;DHT22;8463;48.094;7.970;2023-04-06T00:11:31;2.60;8.30
2409;DHT22;8463;48.094;7.970;2023-04-06T00:13:57;2.70;8.50
2409;DHT22;8463;48.094;7.970;2023-04-06T00:16:23;2.70;7.50
2409;DHT22;8463;48.094;7.970;2023-04-06T00:18:48;2.90;7.50
2409;DHT22;8463;48.094;7.970;2023-04-06T00:21:14;3.00;6.20
2409;DHT22;8463;48.094;7.970;2023-04-06T00:23:43;3.00;6.60
2409;DHT22;8463;48.094;7.970;2023-04-06T00:26:08;2.90;6.30
2409;DHT22;8463;48.094;7.970;2023-04-06T00:28:36;2.80;6.20
2409;DHT22;8463;48.094;7.970;2023-04-06T00:31:02;2.70;7.50
2409;DHT22;8463;48.094;7.970;2023-04-06T00:33:28;2.40;8.00
2409;DHT22;8463;48.094;7.970;2023-04-06T00:35:53;2.40;8.60
2409;DHT22;8463;48.094;7.970;2023-04-06T00:38:19;2.50;9.20
2409;DHT22;8463;48.094;7.970;2023-04-06T00:40:45;2.50;7.80
2409;DHT22;8463;48.094;7.970;2023-04-06T00:43:11;2.40;8.60
2409;DHT22;8463;48.094;7.970;2023-04-06T00:45:43;2.30;8.50
2409;DHT22;8463;48.094;7.970;2023-04-06T00:48:09;2.30;8.90
2409;DHT22;8463;48.094;7.970;2023-04-06T00:50:35;2.30;9.80
2409;DHT22;8463;48.094;7.970;2023-04-06T00:53:01;2.30;8.80
2409;DHT22;8463;48.094;7.970;2023-04-06T00:55:27;2.40;8.80
2409;DHT22;8463;48.094;7.970;2023-04-06T00:57:54;2.30;8.30
2409;DHT22;8463;48.094;7.970;2023-04-06T01:00:20;2.30;8.50
2409;DHT22;8463;48.094;7.970;2023-04-06T01:02:46;2.20;8.90
2409;DHT22;8463;48.094;7.970;2023-04-06T01:05:13;2.20;9.10
2409;DHT22;8463;48.094;7.970;2023-04-06T01:07:39;2.20;9.50
2409;DHT22;8463;48.094;7.970;2023-04-06T01:10:05;2.20;8.70
2409;DHT22;8463;48.094;7.970;2023-04-06T01:12:31;2.20;9.10
2409;DHT22;8463;48.094;7.970;2023-04-06T01:14:56;2.10;8.90
2409;DHT22;8463;48.094;7.970;2023-04-06T01:17:22;2.20;8.90
2409;DHT22;8463;48.094;7.970;2023-04-06T01:19:48;2.20;9.10
2409;DHT22;8463;48.094;7.970;2023-04-06T01:22:18;2.20;9.70
2409;DHT22;8463;48.094;7.970;2023-04-06T01:24:44;2.20;8.40
2409;DHT22;8463;48.094;7.970;2023-04-06T01:27:10;2.30;8.20
2409;DHT22;8463;48.094;7.970;2023-04-06T01:29:36;2.30;7.80
2409;DHT22;8463;48.094;7.970;2023-04-06T01:32:02;2.30;6.60
2409;DHT22;8463;48.094;7.970;2023-04-06T01:34:28;2.30;7.00
2409;DHT22;8463;48.094;7.970;2023-04-06T01:39:20;2.00;8.20
2409;DHT22;8463;48.094;7.970;2023-04-06T01:41:46;1.80;8.90
2409;DHT22;8463;48.094;7.970;2023-04-06T01:44:20;1.90;9.50
2409;DHT22;8463;48.094;7.970;2023-04-06T01:46:45;1.90;9.80
2409;DHT22;8463;48.094;7.970;2023-04-06T01:49:12;1.90;9.10
2409;DHT22;8463;48.094;7.970;2023-04-06T01:51:38;1.90;9.10
2409;DHT22;8463;48.094;7.970;2023-04-06T01:54:04;2.00;8.90
2409;DHT22;8463;48.094;7.970;2023-04-06T01:56:29;2.00;8.60
2409;DHT22;8463;48.094;7.970;2023-04-06T01:58:55;2.00;7.80
2409;DHT22;8463;48.094;7.970;2023-04-06T02:01:21;2.00;8.20
2409;DHT22;8463;48.094;7.970;2023-04-06T02:03:47;1.80;9.10
2409;DHT22;8463;48.094;7.970;2023-04-06T02:06:15;1.80;9.50
2409;DHT22;8463;48.094;7.970;2023-04-06T02:08:40;1.80;9.10
2409;DHT22;8463;48.094;7.970;2023-04-06T02:11:06;1.70;9.40
2409;DHT22;8463;48.094;7.970;2023-04-06T02:13:32;1.70;10.00
2409;DHT22;8463;48.094;7.970;2023-04-06T02:15:58;1.70;10.60
2409;DHT22;8463;48.094;7.970;2023-04-06T02:18:24;1.70;10.00
2409;DHT22;8463;48.094;7.970;2023-04-06T02:20:49;1.80;8.60
2409;DHT22;8463;48.094;7.970;2023-04-06T02:23:15;1.70;9.30
2409;DHT22;8463;48.094;7.970;2023-04-06T02:25:41;1.60;9.60
2409;DHT22;8463;48.094;7.970;2023-04-06T02:28:09;1.80;8.90
2409;DHT22;8463;48.094;7.970;2023-04-06T02:30:35;1.80;9.30
2409;DHT22;8463;48.094;7.970;2023-04-06T02:33:01;1.70;8.60
2409;DHT22;8463;48.094;7.970;2023-04-06T02:35:28;1.70;8.80
2409;DHT22;8463;48.094;7.970;2023-04-06T02:37:54;1.50;9.50
2409;DHT22;8463;48.094;7.970;2023-04-06T02:40:20;1.50;10.10
2409;DHT22;8463;48.094;7.970;2023-04-06T02:42:46;1.60;10.60
2409;DHT22;8463;48.094;7.970;2023-04-06T02:45:11;1.50;11.00
2409;DHT22;8463;48.094;7.970;2023-04-06T02:47:37;1.60;9.90
2409;DHT22;8463;48.094;7.970;2023-04-06T02:50:03;1.70;9.30
2409;DHT22;8463;48.094;7.970;2023-04-06T02:52:29;1.70;9.80
2409;DHT22;8463;48.094;7.970;2023-04-06T02:54:54;1.70;8.50
2409;DHT22;8463;48.094;7.970;2023-04-06T02:57:20;1.70;7.40
2409;DHT22;8463;48.094;7.970;2023-04-06T02:59:46;1.80;8.30
2409;DHT22;8463;48.094;7.970;2023-04-06T03:02:12;1.80;7.80
2409;DHT22;8463;48.094;7.970;2023-04-06T03:04:37;1.80;6.60
2409;DHT22;8463;48.094;7.970;2023-04-06T03:07:03;1.80;7.20
2409;DHT22;8463;48.094;7.970;2023-04-06T03:09:29;1.80;6.50
2409;DHT22;8463;48.094;7.970;2023-04-06T03:11:54;1.80;6.50
2409;DHT22;8463;48.094;7.970;2023-04-06T03:14:20;1.90;6.90
2409;DHT22;8463;48.094;7.970;2023-04-06T03:16:48;1.80;6.10
2409;DHT22;8463;48.094;7.970;2023-04-06T03:19:14;1.80;5.90
2409;DHT22;8463;48.094;7.970;2023-04-06T03:21:40;1.80;6.30
2409;DHT22;8463;48.094;7.970;2023-04-06T03:24:07;1.80;6.60
2409;DHT22;8463;48.094;7.970;2023-04-06T03:26:33;1.70;6.40
2409;DHT22;8463;48.094;7.970;2023-04-06T03:28:58;1.50;7.80
2409;DHT22;8463;48.094;7.970;2023-04-06T03:31:24;1.50;7.10
2409;DHT22;8463;48.094;7.970;2023-04-06T03:33:50;1.50;7.60
2409;DHT22;8463;48.094;7.970;2023-04-06T03:36:15;1.50;7.80
2409;DHT22;8463;48.094;7.970;2023-04-06T03:38:41;1.50;8.10
2409;DHT22;8463;48.094;7.970;2023-04-06T03:41:07;1.50;7.90
2409;DHT22;8463;48.094;7.970;2023-04-06T03:43:32;1.60;7.40
2409;DHT22;8463;48.094;7.970;2023-04-06T03:45:58;1.60;7.90
2409;DHT22;8463;48.094;7.970;2023-04-06T03:48:23;1.60;6.90
2409;DHT22;8463;48.094;7.970;2023-04-06T03:50:49;1.60;6.90
2409;DHT22;8463;48.094;7.970;2023-04-06T03:53:15;1.60;7.40
2409;DHT22;8463;48.094;7.970;2023-04-06T03:55:43;1.70;7.30
2409;DHT22;8463;48.094;7.970;2023-04-06T03:58:09;1.70;5.70
2409;DHT22;8463;48.094;7.970;2023-04-06T04:00:34;1.70;6.20
2409;DHT22;8463;48.094;7.970;2023-04-06T04:03:01;1.70;5.40
2409;DHT22;8463;48.094;7.970;2023-04-06T04:05:27;1.70;6.00
2409;DHT22;8463;48.094;7.970;2023-04-06T04:07:53;1.70;6.70
2409;DHT22;8463;48.094;7.970;2023-04-06T04:10:19;1.70;7.10
2409;DHT22;8463;48.094;7.970;2023-04-06T04:15:10;1.70;5.00
2409;DHT22;8463;48.094;7.970;2023-04-06T04:17:36;1.70;6.10
2409;DHT22;8463;48.094;7.970;2023-04-06T04:20:02;1.70;5.90
2409;DHT22;8463;48.094;7.970;2023-04-06T04:22:27;1.70;5.40
2409;DHT22;8463;48.094;7.970;2023-04-06T04:24:53;1.70;5.50
2409;DHT22;8463;48.094;7.970;2023-04-06T04:27:19;1.70;5.50
2409;DHT22;8463;48.094;7.970;2023-04-06T04:29:45;1.70;5.40
2409;DHT22;8463;48.094;7.970;2023-04-06T04:32:11;1.70;5.50
2409;DHT22;8463;48.094;7.970;2023-04-06T04:34:39;1.60;5.30
2409;DHT22;8463;48.094;7.970;2023-04-06T04:37:06;1.60;5.00
2409;DHT22;8463;48.094;7.970;2023-04-06T04:39:32;1.60;5.30
2409;DHT22;8463;48.094;7.970;2023-04-06T04:41:57;1.50;5.60
2409;DHT22;8463;48.094;7.970;2023-04-06T04:44:23;1.50;6.30
2409;DHT22;8463;48.094;7.970;2023-04-06T04:46:51;1.40;6.20
2409;DHT22;8463;48.094;7.970;2023-04-06T04:49:17;1.50;5.70
2409;DHT22;8463;48.094;7.970;2023-04-06T04:51:43;3.50;7.40
2409;DHT22;8463;48.094;7.970;2023-04-06T04:54:08;1.60;5.70
2409;DHT22;8463;48.094;7.970;2023-04-06T04:56:34;1.60;6.20
2409;DHT22;8463;48.094;7.970;2023-04-06T04:59:00;1.60;5.40
2409;DHT22;8463;48.094;7.970;2023-04-06T05:01:25;1.50;5.30
2409;DHT22;8463;48.094;7.970;2023-04-06T05:03:51;1.60;5.90
2409;DHT22;8463;48.094;7.970;2023-04-06T05:06:16;1.70;5.40
2409;DHT22;8463;48.094;7.970;2023-04-06T05:08:44;1.60;6.10
2409;DHT22;8463;48.094;7.970;2023-04-06T05:11:10;1.60;5.40
2409;DHT22;8463;48.094;7.970;2023-04-06T05:13:36;1.60;5.30
2409;DHT22;8463;48.094;7.970;2023-04-06T05:16:01;1.60;5.80
2409;DHT22;8463;48.094;7.970;2023-04-06T05:18:27;1.50;5.30
2409;DHT22;8463;48.094;7.970;2023-04-06T05:20:53;1.50;6.30
2409;DHT22;8463;48.094;7.970;2023-04-06T05:23:19;1.30;7.30
2409;DHT22;8463;48.094;7.970;2023-04-06T05:25:44;1.30;7.10
2409;DHT22;8463;48.094;7.970;2023-04-06T05:28:10;1.30;6.70
2409;DHT22;8463;48.094;7.970;2023-04-06T05:30:36;1.30;7.10
2409;DHT22;8463;48.094;7.970;2023-04-06T05:33:02;1.40;7.00
2409;DHT22;8463;48.094;7.970;2023-04-06T05:35:28;1.40;6.80
2409;DHT22;8463;48.094;7.970;2023-04-06T05:37:53;1.50;7.10
2409;DHT22;8463;48.094;7.970;2023-04-06T05:40:19;1.50;6.20
2409;DHT22;8463;48.094;7.970;2023-04-06T05:42:47;1.60;5.40
2409;DHT22;8463;48.094;7.970;2023-04-06T05:45:14;1.60;5.00
2409;DHT22;8463;48.094;7.970;2023-04-06T05:47:42;1.60;5.40
2409;DHT22;8463;48.094;7.970;2023-04-06T05:50:10;1.70;5.00
2409;DHT22;8463;48.094;7.970;2023-04-06T05:52:35;1.70;5.00
2409;DHT22;8463;48.094;7.970;2023-04-06T05:55:01;1.70;5.50
2409;DHT22;8463;48.094;7.970;2023-04-06T05:57:27;1.90;4.70
2409;DHT22;8463;48.094;7.970;2023-04-06T05:59:53;2.00;5.10
2409;DHT22;8463;48.094;7.970;2023-04-06T06:02:18;2.00;5.30
2409;DHT22;8463;48.094;7.970;2023-04-06T06:04:44;2.10;4.60
2409;DHT22;8463;48.094;7.970;2023-04-06T06:07:10;2.30;4.00
2409;DHT22;8463;48.094;7.970;2023-04-06T06:09:36;2.30;3.80
2409;DHT22;8463;48.094;7.970;2023-04-06T06:12:01;2.40;3.10
2409;DHT22;8463;48.094;7.970;2023-04-06T06:14:27;2.40;2.90
2409;DHT22;8463;48.094;7.970;2023-04-06T06:16:54;2.50;3.20
2409;DHT22;8463;48.094;7.970;2023-04-06T06:19:20;2.60;3.00
2409;DHT22;8463;48.094;7.970;2023-04-06T06:21:46;2.70;1.70
2409;DHT22;8463;48.094;7.970;2023-04-06T06:24:11;2.90;1.60
2409;DHT22;8463;48.094;7.970;2023-04-06T06:26:37;3.10;1.00
2409;DHT22;8463;48.094;7.970;2023-04-06T06:29:05;2.90;1.00
2409;DHT22;8463;48.094;7.970;2023-04-06T06:31:31;2.80;1.00
2409;DHT22;8463;48.094;7.970;2023-04-06T06:33:57;2.90;1.10
2409;DHT22;8463;48.094;7.970;2023-04-06T06:36:22;3.00;1.00
2409;DHT22;8463;48.094;7.970;2023-04-06T06:38:48;3.00;1.00
2409;DHT22;8463;48.094;7.970;2023-04-06T06:41:14;3.30;1.00
2409;DHT22;8463;48.094;7.970;2023-04-06T06:43:39;3.40;1.00
2409;DHT22;8463;48.094;7.970;2023-04-06T06:46:05;3.60;1.00
2409;DHT22;8463;48.094;7.970;2023-04-06T06:48:31;3.80;1.00
2409;DHT22;8463;48.094;7.970;2023-04-06T06:50:57;4.20;1.00
2409;DHT22;8463;48.094;7.970;2023-04-06T06:53:24;4.20;1.00
2409;DHT22;8463;48.094;7.970;2023-04-06T06:55:50;4.40;1.00
2409;DHT22;8463;48.094;7.970;2023-04-06T06:58:18;4.60;1.00
2409;DHT22;8463;48.094;7.970;2023-04-06T07:00:44;4.90;1.00
2409;DHT22;8463;48.094;7.970;2023-04-06T07:03:10;4.90;1.00
2409;DHT22;8463;48.094;7.970;2023-04-06T07:05:35;5.30;1.00
2409;DHT22;8463;48.094;7.970;2023-04-06T07:08:01;5.70;1.00
2409;DHT22;8463;48.094;7.970;2023-04-06T07:10:27;6.10;1.00
2409;DHT22;8463;48.094;7.970;2023-04-06T07:12:53;6.40;1.00
2409;DHT22;8463;48.094;7.970;2023-04-06T07:15:18;6.30;1.00
2409;DHT22;8463;48.094;7.970;2023-04-06T07:17:44;6.60;1.00
2409;DHT22;8463;48.094;7.970;2023-04-06T07:20:11;6.60;1.00
2409;DHT22;8463;48.094;7.970;2023-04-06T07:22:38;6.70;1.00
2409;DHT22;8463;48.094;7.970;2023-04-06T07:25:04;6.60;1.00
2409;DHT22;8463;48.094;7.970;2023-04-06T07:27:30;6.80;1.00
2409;DHT22;8463;48.094;7.970;2023-04-06T07:29:56;7.10;1.00
2409;DHT22;8463;48.094;7.970;2023-04-06T07:32:21;7.10;1.00
2409;DHT22;8463;48.094;7.970;2023-04-06T07:34:49;7.20;1.00
2409;DHT22;8463;48.094;7.970;2023-04-06T07:37:15;7.30;1.00
2409;DHT22;8463;48.094;7.970;2023-04-06T07:39:41;7.40;1.00
2409;DHT22;8463;48.094;7.970;2023-04-06T07:42:06;7.60;1.00
2409;DHT22;8463;48.094;7.970;2023-04-06T07:44:32;7.70;1.00
2409;DHT22;8463;48.094;7.970;2023-04-06T07:46:58;8.00;1.00
2409;DHT22;8463;48.094;7.970;2023-04-06T07:49:23;8.30;1.00
2409;DHT22;8463;48.094;7.970;2023-04-06T07:51:49;8.30;1.00
2409;DHT22;8463;48.094;7.970;2023-04-06T07:54:15;8.40;1.00
2409;DHT22;8463;48.094;7.970;2023-04-06T07:56:41;8.40;1.00
2409;DHT22;8463;48.094;7.970;2023-04-06T07:59:06;8.60;1.00
2409;DHT22;8463;48.094;7.970;2023-04-06T08:01:32;8.70;1.00
2409;DHT22;8463;48.094;7.970;2023-04-06T08:03:58;8.70;1.00
2409;DHT22;8463;48.094;7.970;2023-04-06T08:06:24;8.40;1.00
2409;DHT22;8463;48.094;7.970;2023-04-06T08:08:50;8.50;1.00
2409;DHT22;8463;48.094;7.970;2023-04-06T08:11:15;8.90;1.00
2409;DHT22;8463;48.094;7.970;2023-04-06T08:13:41;8.90;1.00
2409;DHT22;8463;48.094;7.970;2023-04-06T08:16:07;9.20;1.00
2409;DHT22;8463;48.094;7.970;2023-04-06T08:18:32;9.80;1.00
2409;DHT22;8463;48.094;7.970;2023-04-06T08:20:58;9.80;1.00
2409;DHT22;8463;48.094;7.970;2023-04-06T08:23:24;9.80;1.00
2409;DHT22;8463;48.094;7.970;2023-04-06T08:25:49;9.80;1.00
2409;DHT22;8463;48.094;7.970;2023-04-06T08:28:15;9.80;1.00
2409;DHT22;8463;48.094;7.970;2023-04-06T08:30:44;9.80;1.00
2409;DHT22;8463;48.094;7.970;2023-04-06T08:33:10;10.10;1.00
2409;DHT22;8463;48.094;7.970;2023-04-06T08:35:36;10.20;1.00
2409;DHT22;8463;48.094;7.970;2023-04-06T08:38:02;10.50;1.00
2409;DHT22;8463;48.094;7.970;2023-04-06T08:42:59;10.30;1.00
2409;DHT22;8463;48.094;7.970;2023-04-06T08:45:27;10.30;1.00
2409;DHT22;8463;48.094;7.970;2023-04-06T08:47:54;9.70;1.00
2409;DHT22;8463;48.094;7.970;2023-04-06T08:50:24;9.80;1.00
2409;DHT22;8463;48.094;7.970;2023-04-06T08:52:50;9.90;1.00
2409;DHT22;8463;48.094;7.970;2023-04-06T08:55:16;9.80;1.00
2409;DHT22;8463;48.094;7.970;2023-04-06T08:57:42;9.90;1.00
2409;DHT22;8463;48.094;7.970;2023-04-06T09:00:10;9.70;1.00
2409;DHT22;8463;48.094;7.970;2023-04-06T09:02:42;9.70;1.00
2409;DHT22;8463;48.094;7.970;2023-04-06T09:05:09;9.70;1.00
2409;DHT22;8463;48.094;7.970;2023-04-06T09:07:37;10.60;1.00
2409;DHT22;8463;48.094;7.970;2023-04-06T09:10:04;10.90;1.00
2409;DHT22;8463;48.094;7.970;2023-04-06T09:12:31;11.00;1.00
2409;DHT22;8463;48.094;7.970;2023-04-06T09:14:58;10.50;1.00
2409;DHT22;8463;48.094;7.970;2023-04-06T09:17:32;10.50;1.00
2409;DHT22;8463;48.094;7.970;2023-04-06T09:20:03;10.70;1.00
2409;DHT22;8463;48.094;7.970;2023-04-06T09:22:36;10.80;1.00
2409;DHT22;8463;48.094;7.970;2023-04-06T09:25:02;10.80;1.00
2409;DHT22;8463;48.094;7.970;2023-04-06T09:27:36;10.80;1.00
2409;DHT22;8463;48.094;7.970;2023-04-06T09:30:11;10.80;1.00
2409;DHT22;8463;48.094;7.970;2023-04-06T09:32:52;10.80;1.00
2409;DHT22;8463;48.094;7.970;2023-04-06T09:35:19;10.90;1.00
2409;DHT22;8463;48.094;7.970;2023-04-06T09:37:48;10.80;1.00
2409;DHT22;8463;48.094;7.970;2023-04-06T09:40:14;10.70;1.00
2409;DHT22;8463;48.094;7.970;2023-04-06T09:42:44;10.60;1.00
2409;DHT22;8463;48.094;7.970;2023-04-06T09:47:37;10.90;1.00
2409;DHT22;8463;48.094;7.970;2023-04-06T09:50:03;11.00;1.00
2409;DHT22;8463;48.094;7.970;2023-04-06T09:52:33;11.30;1.00
2409;DHT22;8463;48.094;7.970;2023-04-06T09:55:04;11.20;1.00
2409;DHT22;8463;48.094;7.970;2023-04-06T09:57:54;11.40;1.00
2409;DHT22;8463;48.094;7.970;2023-04-06T10:00:22;11.50;1.00
2409;DHT22;8463;48.094;7.970;2023-04-06T10:05:46;11.50;1.00
2409;DHT22;8463;48.094;7.970;2023-04-06T10:08:15;12.10;1.00
2409;DHT22;8463;48.094;7.970;2023-04-06T10:10:41;12.10;1.00
2409;DHT22;8463;48.094;7.970;2023-04-06T10:13:10;12.10;1.00
2409;DHT22;8463;48.094;7.970;2023-04-06T10:15:38;12.30;1.00
2409;DHT22;8463;48.094;7.970;2023-04-06T10:18:07;11.80;1.00
2409;DHT22;8463;48.094;7.970;2023-04-06T10:23:06;11.50;1.00
2409;DHT22;8463;48.094;7.970;2023-04-06T10:25:34;11.60;1.00
2409;DHT22;8463;48.094;7.970;2023-04-06T10:28:09;11.60;1.00
2409;DHT22;8463;48.094;7.970;2023-04-06T10:30:42;11.90;1.00
2409;DHT22;8463;48.094;7.970;2023-04-06T10:33:19;11.60;1.00
2409;DHT22;8463;48.094;7.970;2023-04-06T10:35:46;11.90;1.00
2409;DHT22;8463;48.094;7.970;2023-04-06T10:38:12;12.10;1.00
2409;DHT22;8463;48.094;7.970;2023-04-06T10:40:41;11.90;1.00
2409;DHT22;8463;48.094;7.970;2023-04-06T10:43:12;12.00;1.00
2409;DHT22;8463;48.094;7.970;2023-04-06T10:45:38;12.00;1.00
2409;DHT22;8463;48.094;7.970;2023-04-06T10:48:18;12.20;1.00
2409;DHT22;8463;48.094;7.970;2023-04-06T10:50:46;13.10;1.00
2409;DHT22;8463;48.094;7.970;2023-04-06T10:53:21;13.00;1.00
2409;DHT22;8463;48.094;7.970;2023-04-06T10:55:47;13.20;1.00
2409;DHT22;8463;48.094;7.970;2023-04-06T10:58:14;12.60;1.00
2409;DHT22;8463;48.094;7.970;2023-04-06T11:00:47;12.60;1.00
2409;DHT22;8463;48.094;7.970;2023-04-06T11:03:13;12.80;1.00
2409;DHT22;8463;48.094;7.970;2023-04-06T11:05:46;13.30;1.00
2409;DHT22;8463;48.094;7.970;2023-04-06T11:08:33;12.90;1.00
2409;DHT22;8463;48.094;7.970;2023-04-06T11:11:09;12.60;1.00
2409;DHT22;8463;48.094;7.970;2023-04-06T11:13:44;12.70;1.00
2409;DHT22;8463;48.094;7.970;2023-04-06T11:16:15;13.00;1.00
2409;DHT22;8463;48.094;7.970;2023-04-06T11:18:54;13.00;1.00
2409;DHT22;8463;48.094;7.970;2023-04-06T11:21:41;13.50;1.00
2409;DHT22;8463;48.094;7.970;2023-04-06T11:24:22;13.60;1.00
2409;DHT22;8463;48.094;7.970;2023-04-06T11:29:20;13.60;1.00
2409;DHT22;8463;48.094;7.970;2023-04-06T11:31:50;13.50;1.00
2409;DHT22;8463;48.094;7.970;2023-04-06T11:34:18;13.50;1.00
2409;DHT22;8463;48.094;7.970;2023-04-06T11:36:45;13.50;1.00
2409;DHT22;8463;48.094;7.970;2023-04-06T11:39:19;13.10;1.00
2409;DHT22;8463;48.094;7.970;2023-04-06T11:41:49;13.10;1.00
2409;DHT22;8463;48.094;7.970;2023-04-06T11:44:15;13.50;1.00
2409;DHT22;8463;48.094;7.970;2023-04-06T11:46:51;13.60;1.00
2409;DHT22;8463;48.094;7.970;2023-04-06T11:49:17;14.30;1.00
2409;DHT22;8463;48.094;7.970;2023-04-06T11:51:42;14.30;1.00
2409;DHT22;8463;48.094;7.970;2023-04-06T11:54:08;14.10;1.00
2409;DHT22;8463;48.094;7.970;2023-04-06T11:56:34;14.00;1.00
2409;DHT22;8463;48.094;7.970;2023-04-06T11:58:59;14.00;1.00
2409;DHT22;8463;48.094;7.970;2023-04-06T12:01:26;13.50;1.00
2409;DHT22;8463;48.094;7.970;2023-04-06T12:03:52;13.40;1.00
2409;DHT22;8463;48.094;7.970;2023-04-06T12:06:18;13.10;1.00
2409;DHT22;8463;48.094;7.970;2023-04-06T12:08:44;13.30;1.00
2409;DHT22;8463;48.094;7.970;2023-04-06T12:11:10;13.60;1.00
2409;DHT22;8463;48.094;7.970;2023-04-06T12:13:37;13.70;1.00
2409;DHT22;8463;48.094;7.970;2023-04-06T12:16:05;13.40;1.00
2409;DHT22;8463;48.094;7.970;2023-04-06T12:18:32;13.40;1.00
2409;DHT22;8463;48.094;7.970;2023-04-06T12:20:57;13.40;1.00
2409;DHT22;8463;48.094;7.970;2023-04-06T12:23:23;13.60;1.00
2409;DHT22;8463;48.094;7.970;2023-04-06T12:25:49;13.60;1.00
2409;DHT22;8463;48.094;7.970;2023-04-06T12:28:15;14.00;1.00
2409;DHT22;8463;48.094;7.970;2023-04-06T12:30:40;14.40;1.00
2409;DHT22;8463;48.094;7.970;2023-04-06T12:33:06;14.30;1.00
2409;DHT22;8463;48.094;7.970;2023-04-06T12:35:36;14.50;1.00
2409;DHT22;8463;48.094;7.970;2023-04-06T12:38:02;14.60;1.00
2409;DHT22;8463;48.094;7.970;2023-04-06T12:40:28;14.60;1.00
2409;DHT22;8463;48.094;7.970;2023-04-06T12:42:54;13.60;1.00
2409;DHT22;8463;48.094;7.970;2023-04-06T12:45:20;13.60;1.00
2409;DHT22;8463;48.094;7.970;2023-04-06T12:47:45;13.70;1.00
2409;DHT22;8463;48.094;7.970;2023-04-06T12:50:11;13.70;1.00
2409;DHT22;8463;48.094;7.970;2023-04-06T12:55:03;13.60;1.00
2409;DHT22;8463;48.094;7.970;2023-04-06T12:57:30;13.40;1.00
2409;DHT22;8463;48.094;7.970;2023-04-06T12:59:57;13.20;1.00
2409;DHT22;8463;48.094;7.970;2023-04-06T13:02:23;13.20;1.00
2409;DHT22;8463;48.094;7.970;2023-04-06T13:04:48;13.20;1.00
2409;DHT22;8463;48.094;7.970;2023-04-06T13:07:15;13.20;1.00
2409;DHT22;8463;48.094;7.970;2023-04-06T13:09:40;13.30;1.00
2409;DHT22;8463;48.094;7.970;2023-04-06T13:12:08;13.30;1.00
2409;DHT22;8463;48.094;7.970;2023-04-06T13:14:34;13.60;1.00
2409;DHT22;8463;48.094;7.970;2023-04-06T13:17:00;13.90;1.00
2409;DHT22;8463;48.094;7.970;2023-04-06T13:19:26;13.80;1.00
2409;DHT22;8463;48.094;7.970;2023-04-06T13:21:51;13.60;1.00
2409;DHT22;8463;48.094;7.970;2023-04-06T13:24:17;13.60;1.00
2409;DHT22;8463;48.094;7.970;2023-04-06T13:26:43;13.60;1.00
2409;DHT22;8463;48.094;7.970;2023-04-06T13:29:09;13.70;1.00
2409;DHT22;8463;48.094;7.970;2023-04-06T13:31:34;13.70;1.00
2409;DHT22;8463;48.094;7.970;2023-04-06T13:34:00;13.40;1.00
2409;DHT22;8463;48.094;7.970;2023-04-06T13:36:26;13.70;1.00
2409;DHT22;8463;48.094;7.970;2023-04-06T13:38:52;13.70;1.00
2409;DHT22;8463;48.094;7.970;2023-04-06T13:41:20;13.70;1.00
2409;DHT22;8463;48.094;7.970;2023-04-06T13:43:46;13.90;1.00
2409;DHT22;8463;48.094;7.970;2023-04-06T13:46:12;13.50;1.00
2409;DHT22;8463;48.094;7.970;2023-04-06T13:48:38;13.50;1.00
2409;DHT22;8463;48.094;7.970;2023-04-06T13:51:13;13.70;1.00
2409;DHT22;8463;48.094;7.970;2023-04-06T13:53:39;13.70;1.00
2409;DHT22;8463;48.094;7.970;2023-04-06T13:56:06;13.90;1.00
2409;DHT22;8463;48.094;7.970;2023-04-06T13:58:32;13.60;1.00
2409;DHT22;8463;48.094;7.970;2023-04-06T14:01:07;13.50;1.00
2409;DHT22;8463;48.094;7.970;2023-04-06T14:03:35;13.40;1.00
2409;DHT22;8463;48.094;7.970;2023-04-06T14:06:08;13.20;1.00
2409;DHT22;8463;48.094;7.970;2023-04-06T14:08:34;13.20;1.00
2409;DHT22;8463;48.094;7.970;2023-04-06T14:11:02;13.20;1.00
2409;DHT22;8463;48.094;7.970;2023-04-06T14:13:28;13.10;1.00
2409;DHT22;8463;48.094;7.970;2023-04-06T14:15:54;13.00;1.00
2409;DHT22;8463;48.094;7.970;2023-04-06T14:18:21;13.20;1.00
2409;DHT22;8463;48.094;7.970;2023-04-06T14:20:57;13.20;1.00
2409;DHT22;8463;48.094;7.970;2023-04-06T14:23:24;13.20;1.00
2409;DHT22;8463;48.094;7.970;2023-04-06T14:26:01;13.10;1.00
2409;DHT22;8463;48.094;7.970;2023-04-06T14:28:28;13.10;1.00
2409;DHT22;8463;48.094;7.970;2023-04-06T14:30:53;13.10;1.00
2409;DHT22;8463;48.094;7.970;2023-04-06T14:33:19;13.10;1.00
2409;DHT22;8463;48.094;7.970;2023-04-06T14:35:44;13.10;1.00
2409;DHT22;8463;48.094;7.970;2023-04-06T14:38:10;13.10;1.00
2409;DHT22;8463;48.094;7.970;2023-04-06T14:40:36;13.20;1.00
2409;DHT22;8463;48.094;7.970;2023-04-06T14:43:02;13.10;1.00
2409;DHT22;8463;48.094;7.970;2023-04-06T14:45:33;12.80;1.00
2409;DHT22;8463;48.094;7.970;2023-04-06T14:47:59;12.80;1.00
2409;DHT22;8463;48.094;7.970;2023-04-06T14:50:25;12.70;1.00
2409;DHT22;8463;48.094;7.970;2023-04-06T14:52:50;12.70;1.00
2409;DHT22;8463;48.094;7.970;2023-04-06T14:55:16;12.80;1.00
2409;DHT22;8463;48.094;7.970;2023-04-06T14:57:42;12.80;1.00
2409;DHT22;8463;48.094;7.970;2023-04-06T15:00:08;12.80;1.00
2409;DHT22;8463;48.094;7.970;2023-04-06T15:02:34;12.90;1.00
2409;DHT22;8463;48.094;7.970;2023-04-06T15:05:03;13.10;1.00
2409;DHT22;8463;48.094;7.970;2023-04-06T15:07:30;13.10;1.00
2409;DHT22;8463;48.094;7.970;2023-04-06T15:09:57;13.30;1.00
2409;DHT22;8463;48.094;7.970;2023-04-06T15:12:23;13.30;1.00
2409;DHT22;8463;48.094;7.970;2023-04-06T15:14:48;13.50;1.00
2409;DHT22;8463;48.094;7.970;2023-04-06T15:17:14;13.50;1.00
2409;DHT22;8463;48.094;7.970;2023-04-06T15:19:40;13.60;1.00
2409;DHT22;8463;48.094;7.970;2023-04-06T15:22:06;13.30;1.00
2409;DHT22;8463;48.094;7.970;2023-04-06T15:24:31;13.30;1.00
2409;DHT22;8463;48.094;7.970;2023-04-06T15:26:57;13.20;1.00
2409;DHT22;8463;48.094;7.970;2023-04-06T15:29:23;13.10;1.00
2409;DHT22;8463;48.094;7.970;2023-04-06T15:31:49;13.10;1.00
2409;DHT22;8463;48.094;7.970;2023-04-06T15:34:14;13.20;1.00
2409;DHT22;8463;48.094;7.970;2023-04-06T15:36:40;13.00;1.00
2409;DHT22;8463;48.094;7.970;2023-04-06T15:39:11;13.00;1.00
2409;DHT22;8463;48.094;7.970;2023-04-06T15:41:38;12.90;1.00
2409;DHT22;8463;48.094;7.970;2023-04-06T15:44:03;12.90;1.00
2409;DHT22;8463;48.094;7.970;2023-04-06T15:46:29;12.70;1.00
2409;DHT22;8463;48.094;7.970;2023-04-06T15:48:55;12.70;1.00
2409;DHT22;8463;48.094;7.970;2023-04-06T15:51:21;12.70;1.00
2409;DHT22;8463;48.094;7.970;2023-04-06T15:53:48;12.70;1.00
2409;DHT22;8463;48.094;7.970;2023-04-06T15:56:14;12.60;1.00
2409;DHT22;8463;48.094;7.970;2023-04-06T15:58:40;12.60;1.00
2409;DHT22;8463;48.094;7.970;2023-04-06T16:01:17;12.20;1.00
2409;DHT22;8463;48.094;7.970;2023-04-06T16:03:45;11.90;1.00
2409;DHT22;8463;48.094;7.970;2023-04-06T16:06:11;11.80;1.00
2409;DHT22;8463;48.094;7.970;2023-04-06T16:08:39;11.90;1.00
2409;DHT22;8463;48.094;7.970;2023-04-06T16:11:05;11.80;1.00
2409;DHT22;8463;48.094;7.970;2023-04-06T16:13:31;11.90;1.00
2409;DHT22;8463;48.094;7.970;2023-04-06T16:15:57;11.90;1.00
2409;DHT22;8463;48.094;7.970;2023-04-06T16:18:23;11.90;1.00
2409;DHT22;8463;48.094;7.970;2023-04-06T16:20:49;12.00;1.00
2409;DHT22;8463;48.094;7.970;2023-04-06T16:23:15;11.80;1.00
2409;DHT22;8463;48.094;7.970;2023-04-06T16:25:41;11.80;1.00
2409;DHT22;8463;48.094;7.970;2023-04-06T16:28:07;11.90;1.00
2409;DHT22;8463;48.094;7.970;2023-04-06T16:30:36;12.00;1.00
2409;DHT22;8463;48.094;7.970;2023-04-06T16:33:02;12.00;1.00
2409;DHT22;8463;48.094;7.970;2023-04-06T16:35:30;12.00;1.00
2409;DHT22;8463;48.094;7.970;2023-04-06T16:37:56;12.00;1.00
2409;DHT22;8463;48.094;7.970;2023-04-06T16:40:21;12.10;1.00
2409;DHT22;8463;48.094;7.970;2023-04-06T16:42:47;12.10;1.00
2409;DHT22;8463;48.094;7.970;2023-04-06T16:45:13;12.00;1.00